Time;durP1;ratioP1;P1;durP2;ratioP2;P2;SDS_P1;SDS_P2;PMS_P1;PMS_P2;Temp;Humidity;BMP_temperature;BMP_pressure;BME280_temperature;BME280_humidity;BME280_pressure;Samples;Min_cycle;Max_cycle;Signal;HPM_P1;HPM_P2
2022/12/02 00:02:26;;;;;;;195.35;48.00;;;;;;;1.13;100.00;101819.66;6495352;22;20007;-77
2022/12/02 00:05:20;;;;;;;180.13;46.22;;;;;;;1.14;100.00;101818.81;6494673;22;20006;-76
2022/12/02 00:07:51;;;;;;;186.70;49.53;;;;;;;1.19;100.00;101814.63;6495769;22;20004;-76
2022/12/02 00:10:29;;;;;;;177.07;44.85;;;;;;;1.23;100.00;101811.28;6487078;22;20011;-76
2022/12/02 00:13:22;;;;;;;193.77;48.22;;;;;;;1.30;100.00;101820.91;6459809;22;20125;-77
2022/12/02 00:15:58;;;;;;;201.07;47.08;;;;;;;1.28;100.00;101813.97;6497227;22;20022;-76
2022/12/02 00:18:29;;;;;;;198.10;47.17;;;;;;;1.30;100.00;101815.75;6496723;22;20082;-77
2022/12/02 00:20:59;;;;;;;187.88;47.17;;;;;;;1.40;100.00;101803.94;6497121;22;20010;-77
2022/12/02 00:23:29;;;;;;;195.15;48.75;;;;;;;1.40;100.00;101802.22;6497131;22;19999;-77
2022/12/02 00:26:00;;;;;;;173.02;47.30;;;;;;;1.39;100.00;101794.47;6497303;22;19995;-77
2022/12/02 00:28:30;;;;;;;167.45;46.60;;;;;;;1.41;100.00;101795.38;6497612;22;20094;-77
2022/12/02 00:31:00;;;;;;;160.50;45.30;;;;;;;1.35;100.00;101800.38;6497120;22;20006;-76
2022/12/02 00:33:31;;;;;;;164.23;46.83;;;;;;;1.31;100.00;101799.47;6497235;22;20003;-78
2022/12/02 00:36:01;;;;;;;159.10;47.88;;;;;;;1.27;100.00;101801.94;6497037;22;20093;-77
2022/12/02 00:38:31;;;;;;;167.00;46.70;;;;;;;1.45;100.00;101802.31;6486914;22;20006;-77
2022/12/02 00:41:02;;;;;;;154.35;45.92;;;;;;;1.31;100.00;101801.16;6497552;22;20082;-77
2022/12/02 00:46:36;;;;;;;166.00;47.55;;;;;;;1.20;100.00;101800.94;6495826;22;20368;-77
2022/12/02 00:49:12;;;;;;;168.95;47.92;;;;;;;1.23;100.00;101795.84;6459498;22;20062;-77
2022/12/02 00:51:43;;;;;;;;;;;;;;;1.15;100.00;101802.53;6497829;22;20008;-76
2022/12/02 00:54:14;;;;;;;158.63;45.95;;;;;;;1.09;100.00;101798.97;6497015;22;20301;-77
2022/12/02 00:56:44;;;;;;;157.57;47.75;;;;;;;1.15;100.00;101792.25;6496037;22;20079;-77
2022/12/02 00:59:14;;;;;;;155.43;46.75;;;;;;;1.28;100.00;101791.69;6497025;22;20003;-77
2022/12/02 01:01:45;;;;;;;154.07;45.22;;;;;;;1.25;100.00;101791.59;6496407;22;20115;-76
2022/12/02 01:04:15;;;;;;;147.40;45.75;;;;;;;1.14;100.00;101793.09;6459250;22;20003;-77
2022/12/02 01:06:45;;;;;;;148.70;47.72;;;;;;;1.05;100.00;101790.28;6459084;22;20026;-76
2022/12/02 01:09:16;;;;;;;149.63;45.58;;;;;;;1.10;100.00;101791.25;6497202;22;19999;-77
2022/12/02 01:11:46;;;;;;;151.95;45.40;;;;;;;1.06;100.00;101794.59;6496184;22;20004;-77
2022/12/02 01:14:16;;;;;;;155.75;45.60;;;;;;;1.06;100.00;101797.19;6496698;22;20000;-78
2022/12/02 01:16:46;;;;;;;146.77;43.95;;;;;;;1.04;100.00;101792.84;6486257;22;20312;-76
2022/12/02 01:19:17;;;;;;;152.50;46.75;;;;;;;1.02;100.00;101795.38;6496328;22;20007;-76
2022/12/02 01:21:47;;;;;;;144.77;45.15;;;;;;;1.04;100.00;101796.28;6497082;22;19999;-77
2022/12/02 01:24:17;;;;;;;152.23;45.72;;;;;;;1.05;100.00;101795.44;6496540;22;20064;-77
2022/12/02 01:26:48;;;;;;;148.40;44.78;;;;;;;1.12;100.00;101796.44;6457790;22;19999;-75
2022/12/02 01:29:18;;;;;;;143.93;44.80;;;;;;;1.08;100.00;101786.94;6496518;22;20419;-77
2022/12/02 01:31:48;;;;;;;144.23;43.88;;;;;;;1.11;100.00;101795.59;6497114;22;20283;-77
2022/12/02 01:34:19;;;;;;;146.38;44.20;;;;;;;1.16;100.00;101785.38;6458626;22;20486;-77
2022/12/02 01:36:49;;;;;;;140.52;43.10;;;;;;;1.01;100.00;101788.50;6496394;22;20034;-77
2022/12/02 01:39:19;;;;;;;136.63;43.05;;;;;;;1.05;100.00;101795.44;6495705;22;20004;-78
2022/12/02 01:41:50;;;;;;;126.00;42.88;;;;;;;1.25;100.00;101794.16;6495828;22;20114;-77
2022/12/02 01:44:20;;;;;;;131.38;42.38;;;;;;;1.31;100.00;101793.44;6496377;22;20574;-76
2022/12/02 01:46:51;;;;;;;130.90;42.58;;;;;;;1.17;100.00;101795.72;6495247;22;19999;-77
2022/12/02 01:49:21;;;;;;;127.20;41.35;;;;;;;1.24;100.00;101784.69;6452859;22;20000;-78
2022/12/02 01:51:52;;;;;;;128.45;42.38;;;;;;;1.22;100.00;101794.09;6494833;22;20050;-77
2022/12/02 01:54:22;;;;;;;127.75;42.58;;;;;;;1.23;100.00;101785.53;6495821;22;20010;-77
2022/12/02 01:56:52;;;;;;;121.45;40.97;;;;;;;1.17;100.00;101793.16;6496156;22;20027;-77
2022/12/02 01:59:23;;;;;;;123.93;40.33;;;;;;;1.09;100.00;101786.94;6495803;22;20058;-77
2022/12/02 02:01:53;;;;;;;113.88;40.25;;;;;;;1.19;100.00;101795.72;6496953;22;20007;-76
2022/12/02 02:04:24;;;;;;;118.65;40.05;;;;;;;1.12;100.00;101797.34;6459031;22;20015;-76
2022/12/02 02:06:54;;;;;;;121.35;40.55;;;;;;;1.07;100.00;101793.75;6496406;22;19999;-76
2022/12/02 02:09:24;;;;;;;119.72;38.95;;;;;;;1.24;100.00;101787.28;6457816;22;20007;-77
2022/12/02 02:11:56;;;;;;;116.13;39.58;;;;;;;1.19;100.00;101788.00;6496300;22;20004;-77
2022/12/02 02:14:26;;;;;;;116.07;41.28;;;;;;;1.07;100.00;101791.19;6458138;22;20034;-76
2022/12/02 02:16:56;;;;;;;116.15;40.13;;;;;;;1.06;100.00;101780.88;6458379;22;20000;-77
2022/12/02 02:19:27;;;;;;;115.68;39.58;;;;;;;1.08;100.00;101774.91;6495303;22;20091;-76
2022/12/02 02:21:59;;;;;;;121.10;42.90;;;;;;;1.08;100.00;101777.50;6496019;22;20000;-77
2022/12/02 02:24:29;;;;;;;111.22;39.53;;;;;;;1.07;100.00;101780.91;6496005;22;20000;-76
2022/12/02 02:27:00;;;;;;;119.70;40.80;;;;;;;1.08;100.00;101768.91;6496786;22;20000;-76
2022/12/02 02:29:30;;;;;;;121.53;40.20;;;;;;;1.09;100.00;101778.38;6495871;22;20007;-77
2022/12/02 02:32:01;;;;;;;119.63;40.50;;;;;;;1.06;100.00;101770.59;6457926;22;20007;-76
2022/12/02 02:34:31;;;;;;;115.57;39.97;;;;;;;1.06;100.00;101766.28;6496308;22;20003;-77
2022/12/02 02:37:02;;;;;;;115.75;39.75;;;;;;;1.04;100.00;101762.81;6495474;22;19999;-77
2022/12/02 02:39:32;;;;;;;118.10;39.95;;;;;;;1.05;100.00;101763.72;6495454;22;20082;-77
2022/12/02 02:42:02;;;;;;;113.75;40.67;;;;;;;1.11;100.00;101764.72;6496337;22;20443;-77
2022/12/02 02:44:33;;;;;;;111.05;40.28;;;;;;;1.11;100.00;101753.53;6495337;22;20004;-77
2022/12/02 02:47:03;;;;;;;113.47;40.25;;;;;;;1.04;100.00;101755.09;6494802;22;20427;-77
2022/12/02 02:49:33;;;;;;;107.25;39.33;;;;;;;1.12;100.00;101758.72;6495074;22;20435;-77
2022/12/02 02:52:04;;;;;;;106.90;39.60;;;;;;;1.10;100.00;101754.38;6495628;22;20003;-77
2022/12/02 02:54:34;;;;;;;102.65;38.88;;;;;;;1.10;100.00;101744.94;6495783;22;20010;-77
2022/12/02 02:57:04;;;;;;;112.13;39.35;;;;;;;1.09;100.00;101753.47;6495323;22;20791;-77
2022/12/02 02:59:37;;;;;;;108.97;39.38;;;;;;;1.06;100.00;101755.16;6495575;22;20079;-77
2022/12/02 03:02:10;;;;;;;106.22;38.72;;;;;;;1.02;100.00;101755.88;6457553;22;19999;-77
2022/12/02 03:04:42;;;;;;;106.40;39.53;;;;;;;1.02;100.00;101751.63;6494976;22;20620;-77
2022/12/02 03:07:13;;;;;;;102.43;37.45;;;;;;;1.08;100.00;101749.19;6457514;22;20342;-77
2022/12/02 03:09:44;;;;;;;105.65;38.47;;;;;;;1.06;100.00;101755.16;6457410;22;20087;-77
2022/12/02 03:12:15;;;;;;;97.38;37.72;;;;;;;0.98;100.00;101747.25;6495840;22;20023;-75
2022/12/02 03:14:46;;;;;;;102.03;37.70;;;;;;;1.03;100.00;101745.66;6495588;22;20083;-74
2022/12/02 03:17:16;;;;;;;100.28;37.95;;;;;;;0.96;100.00;101748.94;6495587;22;20023;-77
2022/12/02 03:19:47;;;;;;;97.20;38.00;;;;;;;1.03;100.00;101745.66;6494786;22;20007;-77
2022/12/02 03:22:17;;;;;;;101.90;38.53;;;;;;;1.01;100.00;101755.03;6495020;22;20070;-77
2022/12/02 03:24:48;;;;;;;104.95;38.50;;;;;;;1.04;100.00;101747.38;6495553;22;19996;-77
2022/12/02 03:27:18;;;;;;;102.28;38.35;;;;;;;0.97;100.00;101732.66;6457738;22;20097;-77
2022/12/02 03:29:50;;;;;;;97.70;36.70;;;;;;;0.99;100.00;101749.00;6495404;22;20000;-77
2022/12/02 03:32:21;;;;;;;104.07;38.38;;;;;;;0.99;100.00;101743.84;6494659;22;20003;-76
2022/12/02 03:34:51;;;;;;;103.30;38.05;;;;;;;0.99;100.00;101737.81;6494684;22;20057;-77
2022/12/02 03:37:22;;;;;;;99.88;38.08;;;;;;;0.92;100.00;101736.81;6495300;22;20331;-76
2022/12/02 03:39:53;;;;;;;114.22;39.28;;;;;;;1.10;100.00;101737.22;6495264;22;20133;-76
2022/12/02 03:42:25;;;;;;;104.72;40.45;;;;;;;1.06;100.00;101744.84;6484635;22;20050;-76
2022/12/02 03:44:55;;;;;;;106.93;39.20;;;;;;;1.04;100.00;101742.22;6495024;22;20415;-76
2022/12/02 03:47:26;;;;;;;96.25;36.20;;;;;;;1.10;100.00;101742.34;6483781;22;20006;-77
2022/12/02 03:49:57;;;;;;;103.15;37.65;;;;;;;1.03;100.00;101730.22;6494843;22;20010;-77
2022/12/02 03:52:28;;;;;;;104.68;38.75;;;;;;;1.08;100.00;101738.88;6494425;22;20445;-76
2022/12/02 03:54:58;;;;;;;110.78;39.40;;;;;;;1.06;100.00;101729.41;6494953;22;20003;-76
2022/12/02 03:57:32;;;;;;;106.15;39.03;;;;;;;1.03;100.00;101725.06;6456261;22;20034;-77
2022/12/02 04:00:04;;;;;;;101.80;38.42;;;;;;;1.04;100.00;101725.94;6495330;22;20062;-77
2022/12/02 04:02:34;;;;;;;97.72;36.85;;;;;;;0.99;100.00;101724.94;6495301;22;20386;-77
2022/12/02 04:05:05;;;;;;;98.30;37.10;;;;;;;0.99;100.00;101727.53;6495328;22;19996;-77
2022/12/02 04:07:35;;;;;;;98.63;37.03;;;;;;;0.99;100.00;101723.25;6431734;22;20362;-78
2022/12/02 04:10:06;;;;;;;105.47;37.88;;;;;;;0.98;100.00;101721.53;6494661;22;20351;-77
2022/12/02 04:12:36;;;;;;;103.22;39.00;;;;;;;0.95;100.00;101715.44;6495137;22;20083;-77
2022/12/02 04:15:08;;;;;;;101.97;38.13;;;;;;;0.95;100.00;101713.75;6494888;22;20046;-77
2022/12/02 04:17:39;;;;;;;101.40;38.22;;;;;;;0.93;100.00;101714.53;6456916;22;20010;-77
2022/12/02 04:20:10;;;;;;;103.60;37.63;;;;;;;0.99;100.00;101706.94;6495314;22;20011;-77
2022/12/02 04:22:40;;;;;;;97.30;36.80;;;;;;;1.00;100.00;101709.56;6494384;22;20202;-77
2022/12/02 04:25:10;;;;;;;99.90;36.63;;;;;;;0.97;100.00;101709.50;6456979;22;20003;-77
2022/12/02 04:27:41;;;;;;;100.57;37.28;;;;;;;0.94;100.00;101705.97;6456958;22;20419;-77
2022/12/02 04:30:11;;;;;;;96.47;35.72;;;;;;;0.92;100.00;101703.38;6494382;22;20015;-77
2022/12/02 04:32:41;;;;;;;94.85;36.85;;;;;;;0.93;100.00;101711.97;6495235;22;20304;-77
2022/12/02 04:35:12;;;;;;;99.60;36.58;;;;;;;0.91;100.00;101706.78;6495348;22;20004;-77
2022/12/02 04:37:42;;;;;;;99.63;36.47;;;;;;;0.98;100.00;101694.91;6494629;22;20473;-77
2022/12/02 04:40:13;;;;;;;94.68;35.13;;;;;;;0.99;100.00;101697.53;6494758;22;20003;-77
2022/12/02 04:42:43;;;;;;;91.65;34.83;;;;;;;0.99;100.00;101694.97;6494891;22;20015;-77
2022/12/02 04:45:14;;;;;;;88.25;35.28;;;;;;;0.99;100.00;101702.69;6484019;22;19996;-77
2022/12/02 04:47:44;;;;;;;89.53;33.63;;;;;;;1.01;100.00;101700.13;6492986;22;20251;-77
2022/12/02 04:50:14;;;;;;;94.10;35.17;;;;;;;0.86;100.00;101690.38;6493570;22;20042;-77
2022/12/02 04:52:45;;;;;;;88.75;34.15;;;;;;;1.10;100.00;101695.19;6494654;22;20084;-77
2022/12/02 04:55:15;;;;;;;98.85;35.25;;;;;;;0.96;100.00;101697.47;6458707;22;20003;-78
2022/12/02 04:57:45;;;;;;;91.88;35.45;;;;;;;0.83;100.00;101699.72;6458547;22;20328;-77
2022/12/02 05:00:16;;;;;;;96.22;35.83;;;;;;;0.92;100.00;101690.50;6457706;22;20011;-77
2022/12/02 05:02:46;;;;;;;92.95;35.03;;;;;;;0.89;100.00;101695.59;6496693;22;20000;-76
2022/12/02 05:05:16;;;;;;;89.78;34.90;;;;;;;0.78;100.00;101689.38;6496759;22;19995;-76
2022/12/02 05:07:47;;;;;;;92.03;34.78;;;;;;;0.75;100.00;101694.41;6496786;22;20000;-76
2022/12/02 05:10:17;;;;;;;91.40;34.25;;;;;;;0.87;100.00;101691.28;6458709;22;20000;-78
2022/12/02 05:12:47;;;;;;;96.22;34.40;;;;;;;0.80;100.00;101684.25;6496547;22;20010;-78
2022/12/02 05:15:19;;;;;;;91.35;34.60;;;;;;;0.80;100.00;101692.84;6459085;22;20422;-77
2022/12/02 05:17:49;;;;;;;91.93;34.72;;;;;;;0.75;100.00;101691.00;6496552;22;20007;-79
2022/12/02 05:20:19;;;;;;;97.32;34.70;;;;;;;0.82;100.00;101686.03;6496882;22;20012;-78
2022/12/02 05:22:50;;;;;;;87.15;34.42;;;;;;;0.82;100.00;101688.59;6496331;22;20014;-77
2022/12/02 05:25:20;;;;;;;89.72;33.75;;;;;;;0.89;100.00;101685.28;6485232;22;20485;-78
2022/12/02 05:27:50;;;;;;;91.20;34.38;;;;;;;0.85;100.00;101688.66;6485915;22;20453;-77
2022/12/02 05:30:21;;;;;;;89.30;34.60;;;;;;;0.92;100.00;101685.34;6496505;22;20004;-78
2022/12/02 05:32:51;;;;;;;86.30;33.03;;;;;;;0.97;100.00;101688.91;6458689;22;20086;-78
2022/12/02 05:35:21;;;;;;;89.70;33.38;;;;;;;0.89;100.00;101690.44;6496340;22;20004;-78
2022/12/02 05:37:52;;;;;;;89.85;33.55;;;;;;;0.98;100.00;101689.78;6496151;22;20075;-78
2022/12/02 05:40:22;;;;;;;90.53;34.13;;;;;;;0.92;100.00;101689.66;6496863;22;20057;-77
2022/12/02 05:42:52;;;;;;;88.93;32.72;;;;;;;0.82;100.00;101696.31;6496054;22;20006;-77
2022/12/02 05:45:23;;;;;;;88.13;32.47;;;;;;;0.94;100.00;101687.97;6458429;22;20023;-77
2022/12/02 05:47:54;;;;;;;87.97;33.28;;;;;;;0.91;100.00;101687.91;6457166;22;20000;-76
2022/12/02 05:50:24;;;;;;;81.85;31.95;;;;;;;0.88;100.00;101701.56;6495998;22;20007;-78
2022/12/02 05:52:54;;;;;;;86.15;33.00;;;;;;;0.91;100.00;101688.78;6458282;22;20053;-77
2022/12/02 05:55:24;;;;;;;85.03;32.83;;;;;;;0.93;100.00;101687.09;6495572;22;20507;-77
2022/12/02 05:58:01;;;;;;;84.00;31.50;;;;;;;0.86;100.00;101682.66;6495882;22;19995;-79
2022/12/02 06:00:31;;;;;;;87.95;33.63;;;;;;;0.90;100.00;101681.88;6494532;22;20008;-77
2022/12/02 06:03:07;;;;;;;79.45;31.85;;;;;;;0.89;100.00;101679.31;6458157;22;20312;-76
2022/12/02 06:05:42;;;;;;;77.80;30.75;;;;;;;0.92;100.00;101692.22;6495285;22;20014;-79
2022/12/02 06:08:25;;;;;;;66.68;25.10;;;;;;;0.95;100.00;101682.88;6496183;22;20007;-77
2022/12/02 06:11:02;;;;;;;83.50;31.42;;;;;;;0.91;100.00;101683.63;6495160;22;20006;-78
2022/12/02 06:13:37;;;;;;;81.10;31.30;;;;;;;0.95;100.00;101682.00;6458251;22;20457;-77
2022/12/02 06:16:23;;;;;;;77.10;31.05;;;;;;;0.88;100.00;101693.84;6495930;22;20011;-77
2022/12/02 06:18:54;;;;;;;85.00;32.80;;;;;;;0.91;100.00;101693.91;6457879;22;20035;-77
2022/12/02 06:21:25;;;;;;;83.88;31.70;;;;;;;0.89;100.00;101689.59;6494385;22;20466;-77
2022/12/02 06:23:57;;;;;;;79.70;30.58;;;;;;;1.07;100.00;101690.81;6494353;22;20050;-77
2022/12/02 06:26:27;;;;;;;81.70;31.25;;;;;;;1.03;100.00;101693.31;6432490;22;20011;-77
2022/12/02 06:29:02;;;;;;;86.15;32.00;;;;;;;0.94;100.00;101695.69;6493408;22;20004;-78
2022/12/02 06:31:36;;;;;;;81.60;30.90;;;;;;;0.94;100.00;101694.00;6494548;22;20006;-77
2022/12/02 06:34:19;;;;;;;79.82;31.30;;;;;;;0.96;100.00;101692.31;6494880;22;20328;-77
2022/12/02 06:36:49;;;;;;;79.53;31.55;;;;;;;0.88;100.00;101699.00;6493958;22;20446;-78
2022/12/02 06:39:22;;;;;;;85.15;31.95;;;;;;;0.96;100.00;101689.75;6494261;22;20003;-77
2022/12/02 06:41:53;;;;;;;80.60;30.52;;;;;;;0.99;100.00;101687.25;6494001;22;20011;-77
2022/12/02 06:47:31;;;;;;;75.93;31.25;;;;;;;1.00;100.00;101690.66;6492709;22;20026;-76
2022/12/02 06:50:05;;;;;;;81.32;31.23;;;;;;;1.08;100.00;101691.69;6454951;22;20014;-78
2022/12/02 06:52:41;;;;;;;81.65;32.53;;;;;;;1.01;100.00;101693.28;6493438;22;20019;-77
2022/12/02 06:55:20;;;;;;;80.72;31.58;;;;;;;0.95;100.00;101685.44;6494616;22;20057;-77
2022/12/02 06:57:51;;;;;;;79.63;30.50;;;;;;;0.95;100.00;101685.44;6495422;22;20006;-79
2022/12/02 07:00:21;;;;;;;78.30;31.05;;;;;;;0.90;100.00;101681.88;6496146;22;19999;-76
2022/12/02 07:02:51;;;;;;;79.32;31.27;;;;;;;0.89;100.00;101690.44;6494192;22;20006;-77
2022/12/02 07:05:22;;;;;;;86.32;32.42;;;;;;;0.81;100.00;101692.00;6495269;22;20163;-77
2022/12/02 07:07:52;;;;;;;81.40;31.25;;;;;;;0.83;100.00;101700.63;6495954;22;20031;-77
2022/12/02 07:10:28;;;;;;;81.70;31.33;;;;;;;0.93;100.00;101701.69;6495388;22;20022;-77
2022/12/02 07:13:03;;;;;;;77.20;29.40;;;;;;;0.87;100.00;101702.41;6494404;22;20247;-78
2022/12/02 07:15:34;;;;;;;79.93;31.33;;;;;;;0.91;100.00;101703.34;6495076;22;20350;-78
2022/12/02 07:18:13;;;;;;;79.43;30.85;;;;;;;1.05;100.00;101694.22;6457319;22;20003;-78
2022/12/02 07:20:46;;;;;;;75.07;29.52;;;;;;;0.91;100.00;101693.91;6494967;22;19999;-77
2022/12/02 07:23:24;;;;;;;79.25;31.20;;;;;;;0.82;100.00;101698.88;6484951;22;20007;-78
2022/12/02 07:25:56;;;;;;;81.43;31.45;;;;;;;0.79;100.00;101697.94;6495496;22;19995;-78
2022/12/02 07:28:30;;;;;;;89.13;33.30;;;;;;;0.83;100.00;101694.59;6494561;22;20007;-77
2022/12/02 07:31:21;;;;;;;86.20;32.42;;;;;;;0.79;100.00;101695.38;6495053;22;20344;-76
2022/12/02 07:33:52;;;;;;;83.43;31.92;;;;;;;0.78;100.00;101698.78;6495497;22;20246;-77
2022/12/02 07:36:22;;;;;;;87.43;32.65;;;;;;;0.80;100.00;101700.56;6484329;22;20001;-77
2022/12/02 07:38:52;;;;;;;81.32;31.35;;;;;;;0.79;100.00;101703.97;6494741;22;20506;-77
2022/12/02 07:41:23;;;;;;;82.63;31.13;;;;;;;0.81;100.00;101707.44;6456965;22;20008;-77
2022/12/02 07:43:53;;;;;;;83.78;31.85;;;;;;;0.78;100.00;101693.63;6495169;22;20000;-76
2022/12/02 07:46:24;;;;;;;79.35;31.35;;;;;;;0.76;100.00;101710.75;6494763;22;20003;-76
2022/12/02 07:48:54;;;;;;;81.65;30.35;;;;;;;0.85;100.00;101709.22;6494522;22;20235;-77
2022/12/02 07:51:24;;;;;;;89.55;32.42;;;;;;;0.86;100.00;101717.84;6493908;22;20429;-75
2022/12/02 07:53:55;;;;;;;79.53;30.98;;;;;;;0.86;100.00;101705.81;6456888;22;20052;-75
2022/12/02 07:56:25;;;;;;;79.90;30.33;;;;;;;0.85;100.00;101704.09;6456905;22;20069;-78
2022/12/02 07:58:56;;;;;;;78.05;29.38;;;;;;;0.89;100.00;101708.44;6494778;22;20010;-79
2022/12/02 08:01:26;;;;;;;84.68;31.90;;;;;;;0.92;100.00;101705.09;6456229;22;20010;-77
2022/12/02 08:03:56;;;;;;;77.32;30.35;;;;;;;0.95;100.00;101710.28;6457825;22;20010;-77
2022/12/02 08:06:27;;;;;;;79.85;29.58;;;;;;;0.97;100.00;101696.63;6495630;22;20505;-79
2022/12/02 08:08:57;;;;;;;73.40;28.45;;;;;;;0.98;100.00;101716.38;6492825;22;20020;-77
2022/12/02 08:11:27;;;;;;;74.32;28.83;;;;;;;0.93;100.00;101702.53;6493114;22;19996;-77
2022/12/02 08:13:58;;;;;;;76.25;29.70;;;;;;;0.89;100.00;101705.88;6495484;22;20000;-77
2022/12/02 08:16:28;;;;;;;74.00;29.50;;;;;;;0.84;100.00;101697.22;6457141;22;20382;-76
2022/12/02 08:19:00;;;;;;;77.53;31.13;;;;;;;0.87;100.00;101706.72;6494328;22;20000;-77
2022/12/02 08:21:31;;;;;;;78.38;29.65;;;;;;;0.90;100.00;101702.47;6491846;22;20069;-76
2022/12/02 08:24:02;;;;;;;78.38;30.33;;;;;;;0.88;100.00;101714.44;6456407;22;20447;-77
2022/12/02 08:26:33;;;;;;;82.03;32.05;;;;;;;0.92;100.00;101700.78;6494644;22;19995;-77
2022/12/02 08:29:03;;;;;;;74.32;29.15;;;;;;;0.91;100.00;101709.34;6495399;22;20004;-77
2022/12/02 08:31:34;;;;;;;80.80;30.60;;;;;;;0.87;100.00;101717.00;6459017;22;20370;-77
2022/12/02 08:34:04;;;;;;;84.70;31.63;;;;;;;0.88;100.00;101713.59;6459178;22;20003;-76
2022/12/02 08:36:34;;;;;;;82.57;30.90;;;;;;;0.92;100.00;101713.66;6496916;22;20004;-77
2022/12/02 08:39:05;;;;;;;78.32;29.95;;;;;;;0.97;100.00;101711.19;6496512;22;20251;-78
2022/12/02 08:41:37;;;;;;;75.55;29.98;;;;;;;0.97;100.00;101704.34;6496248;22;20007;-76
2022/12/02 08:44:07;;;;;;;81.07;31.90;;;;;;;0.96;100.00;101723.19;6497261;22;20511;-78
2022/12/02 08:46:37;;;;;;;76.63;29.95;;;;;;;0.95;100.00;101711.19;6496760;22;20368;-77
2022/12/02 08:49:08;;;;;;;77.63;29.85;;;;;;;1.01;100.00;101705.25;6496179;22;20010;-77
2022/12/02 08:51:38;;;;;;;71.65;29.80;;;;;;;1.00;100.00;101703.53;6496579;22;20042;-77
2022/12/02 08:54:08;;;;;;;71.47;29.00;;;;;;;1.05;100.00;101710.50;6496924;22;20031;-76
2022/12/02 08:56:39;;;;;;;69.95;28.92;;;;;;;1.05;100.00;101710.50;6496729;22;20018;-77
2022/12/02 08:59:09;;;;;;;70.53;29.15;;;;;;;1.08;100.00;101718.28;6458476;22;20096;-76
2022/12/02 09:01:39;;;;;;;68.90;28.92;;;;;;;1.10;100.00;101716.63;6495612;22;20074;-78
2022/12/02 09:04:10;;;;;;;63.53;27.98;;;;;;;1.10;100.00;101718.34;6497661;22;20441;-73
2022/12/02 09:06:40;;;;;;;65.90;28.20;;;;;;;1.16;100.00;101721.91;6496727;22;20006;-75
2022/12/02 09:09:10;;;;;;;65.20;28.00;;;;;;;1.18;100.00;101720.22;6496830;22;20473;-77
2022/12/02 09:11:41;;;;;;;61.88;26.58;;;;;;;1.17;100.00;101717.59;6485841;22;20060;-76
2022/12/02 09:14:11;;;;;;;65.20;26.90;;;;;;;1.23;100.00;101722.91;6486556;22;20004;-77
2022/12/02 09:16:41;;;;;;;57.38;25.73;;;;;;;1.12;100.00;101720.13;6495608;22;20450;-77
2022/12/02 09:19:12;;;;;;;62.20;26.70;;;;;;;1.19;100.00;101721.97;6495914;22;19999;-77
2022/12/02 09:21:43;;;;;;;58.72;26.05;;;;;;;1.16;100.00;101716.75;6457564;22;20010;-77
2022/12/02 09:24:13;;;;;;;61.83;27.40;;;;;;;1.21;100.00;101704.00;6496404;22;20003;-76
2022/12/02 09:26:43;;;;;;;66.88;29.23;;;;;;;1.21;100.00;101712.56;6458739;22;20027;-77
2022/12/02 09:29:14;;;;;;;61.97;27.60;;;;;;;1.21;100.00;101716.88;6457714;22;20333;-76
2022/12/02 09:31:44;;;;;;;63.40;27.90;;;;;;;1.18;100.00;101709.06;6496250;22;20339;-77
2022/12/02 09:34:14;;;;;;;66.30;27.92;;;;;;;1.19;100.00;101711.66;6496792;22;20003;-77
2022/12/02 09:36:45;;;;;;;65.40;28.20;;;;;;;1.23;100.00;101715.19;6496758;22;20179;-77
2022/12/02 09:39:15;;;;;;;62.17;28.13;;;;;;;1.24;100.00;101707.47;6496527;22;20010;-75
2022/12/02 09:41:45;;;;;;;62.28;28.60;;;;;;;1.23;100.00;101702.31;6495299;22;20000;-77
2022/12/02 09:44:16;;;;;;;64.25;29.38;;;;;;;1.23;100.00;101707.47;6497377;22;20000;-77
2022/12/02 09:46:46;;;;;;;68.65;29.20;;;;;;;1.31;100.00;101703.31;6496578;22;20003;-77
2022/12/02 09:49:17;;;;;;;59.92;28.58;;;;;;;1.27;100.00;101693.81;6493947;22;20007;-77
2022/12/02 09:51:47;;;;;;;65.60;29.45;;;;;;;1.34;100.00;101706.81;6458183;22;20086;-77
2022/12/02 09:54:18;;;;;;;79.65;36.10;;;;;;;1.33;100.00;101699.94;6496455;22;20018;-77
2022/12/02 09:56:48;;;;;;;65.80;29.55;;;;;;;1.39;100.00;101704.34;6496373;22;20320;-76
2022/12/02 09:59:19;;;;;;;68.78;31.58;;;;;;;1.39;100.00;101697.47;6495819;22;20427;-76
2022/12/02 10:01:50;;;;;;;75.57;35.80;;;;;;;1.45;100.00;101700.19;6495983;22;20019;-77
2022/12/02 10:04:21;;;;;;;66.10;30.00;;;;;;;1.49;100.00;101696.81;6496677;22;20079;-78
2022/12/02 10:06:51;;;;;;;71.88;32.63;;;;;;;1.47;100.00;101693.34;6496500;22;20000;-77
2022/12/02 10:09:27;;;;;;;62.17;29.25;;;;;;;1.42;100.00;101689.81;6495432;22;20427;-77
2022/12/02 10:11:58;;;;;;;79.88;35.78;;;;;;;1.48;100.00;101695.09;6485853;22;20390;-79
2022/12/02 10:14:28;;;;;;;72.88;33.75;;;;;;;1.51;100.00;101689.97;6496629;22;20038;-78
2022/12/02 10:16:58;;;;;;;61.65;27.95;;;;;;;1.43;100.00;101675.22;6496611;22;20003;-76
2022/12/02 10:19:29;;;;;;;58.97;27.95;;;;;;;1.47;100.00;101688.19;6496191;22;20116;-76
2022/12/02 10:21:59;;;;;;;57.30;27.35;;;;;;;1.52;100.00;101684.00;6494667;22;20033;-78
2022/12/02 10:24:37;;;;;;;59.17;26.83;;;;;;;1.50;100.00;101682.22;6485236;22;20011;-77
2022/12/02 10:27:08;;;;;;;53.67;26.15;;;;;;;1.46;100.00;101681.31;6495415;22;20004;-77
2022/12/02 10:29:38;;;;;;;52.08;24.73;;;;;;;1.46;100.00;101686.47;6496222;22;20015;-78
2022/12/02 10:32:22;;;;;;;49.33;24.98;;;;;;;1.46;100.00;101681.31;6457941;22;20397;-76
2022/12/02 10:35:10;;;;;;;57.65;25.52;;;;;;;1.55;100.00;101684.03;6495988;22;20343;-77
2022/12/02 10:37:40;;;;;;;47.45;23.80;;;;;;;1.52;100.00;101686.56;6496107;22;20038;-77
2022/12/02 10:40:18;;;;;;;46.05;23.65;;;;;;;1.47;100.00;101677.00;6495984;22;20003;-77
2022/12/02 10:43:10;;;;;;;54.75;25.83;;;;;;;1.53;100.00;101680.56;6457650;22;20006;-77
2022/12/02 10:45:56;;;;;;;55.33;25.67;;;;;;;1.49;100.00;101678.78;6495846;22;20011;-77
2022/12/02 10:48:26;;;;;;;45.83;23.40;;;;;;;1.47;100.00;101672.75;6458167;22;19999;-77
2022/12/02 10:50:56;;;;;;;52.15;25.10;;;;;;;1.46;100.00;101671.03;6457577;22;20406;-77
2022/12/02 10:53:28;;;;;;;50.20;24.45;;;;;;;1.46;100.00;101671.03;6458998;22;20090;-77
2022/12/02 10:55:59;;;;;;;45.53;24.15;;;;;;;1.48;100.00;101671.91;6501346;22;19999;-76
2022/12/02 10:58:29;;;;;;;44.85;23.27;;;;;;;1.54;100.00;101672.00;6496082;22;20431;-76
2022/12/02 11:01:00;;;;;;;45.78;23.45;;;;;;;1.51;100.00;101674.53;6494929;22;20007;-77
2022/12/02 11:03:31;;;;;;;45.83;23.55;;;;;;;1.54;100.00;101671.16;6495856;22;20078;-78
2022/12/02 11:06:04;;;;;;;51.67;25.38;;;;;;;1.54;100.00;101666.84;6495727;22;20092;-77
2022/12/02 11:08:35;;;;;;;46.97;24.20;;;;;;;1.64;100.00;101670.47;6457902;22;20146;-77
2022/12/02 11:11:35;;;;;;;46.55;24.65;;;;;;;1.51;100.00;101668.50;6495844;22;20035;-77
2022/12/02 11:14:13;;;;;;;45.60;23.83;;;;;;;1.48;100.00;101666.75;6458389;22;20010;-77
2022/12/02 11:16:46;;;;;;;47.67;25.00;;;;;;;1.42;100.00;101669.19;6495720;22;20006;-77
2022/12/02 11:19:31;;;;;;;48.97;24.45;;;;;;;1.45;100.00;101664.13;6495609;22;20070;-77
2022/12/02 11:22:03;;;;;;;51.53;25.83;;;;;;;1.47;100.00;101667.59;6483238;22;20438;-77
2022/12/02 11:24:34;;;;;;;81.10;34.33;;;;;;;1.80;100.00;101661.31;6495202;22;20415;-77
2022/12/02 11:27:06;;;;;;;93.20;37.75;;;;;;;1.76;100.00;101665.53;6495265;22;20003;-78
2022/12/02 11:30:02;;;;;;;48.15;24.30;;;;;;;1.56;100.00;101667.75;6494750;22;20407;-77
2022/12/02 11:32:35;;;;;;;49.35;24.30;;;;;;;1.50;100.00;101662.50;6483562;22;20004;-78
2022/12/02 11:35:14;;;;;;;50.53;24.25;;;;;;;1.47;100.00;101661.56;6495408;22;20004;-78